Time;durP1;ratioP1;P1;durP2;ratioP2;P2;SDS_P1;SDS_P2;PMS_P1;PMS_P2;Temp;Humidity;BMP_temperature;BMP_pressure;BME280_temperature;BME280_humidity;BME280_pressure;Samples;Min_cycle;Max_cycle;Signal;HPM_P1;HPM_P2
2023/04/23 00:00:12;;;;;;;0.20;0.20;;;;;;;17.36;57.22;100860.56;5069506;28;20032;-66
2023/04/23 00:02:38;;;;;;;0.38;0.38;;;;;;;17.36;56.98;100863.28;5068912;28;20115;-65
2023/04/23 00:05:05;;;;;;;0.10;0.10;;;;;;;17.24;57.44;100858.09;5069117;28;20068;-66
2023/04/23 00:07:32;;;;;;;0.30;0.30;;;;;;;17.52;56.78;100852.22;5068963;28;20048;-67
2023/04/23 00:09:59;;;;;;;0.20;0.20;;;;;;;17.61;56.36;100848.97;5083820;28;20085;-66
2023/04/23 00:12:25;;;;;;;0.20;0.20;;;;;;;17.60;56.44;100853.56;5068485;28;20056;-65
2023/04/23 00:14:50;;;;;;;0.20;0.20;;;;;;;17.31;57.41;100847.81;5069364;28;20041;-66
2023/04/23 00:17:16;;;;;;;0.10;0.10;;;;;;;17.72;56.74;100845.97;5069718;28;20091;-66
2023/04/23 00:19:41;;;;;;;0.25;0.25;;;;;;;17.05;58.61;100846.13;5068847;28;20039;-65
2023/04/23 00:22:07;;;;;;;0.25;0.25;;;;;;;16.79;60.17;100846.28;5068871;28;20116;-65
2023/04/23 00:24:35;;;;;;;0.10;0.10;;;;;;;16.95;59.56;100839.84;5068680;28;20044;-70
2023/04/23 00:27:00;;;;;;;0.25;0.25;;;;;;;17.11;59.03;100846.94;5068345;28;20492;-66
2023/04/23 00:29:26;;;;;;;0.20;0.20;;;;;;;17.39;56.89;100841.81;5069307;28;20024;-67
2023/04/23 00:31:51;;;;;;;0.25;0.25;;;;;;;17.22;58.38;100849.41;5069406;28;20036;-66
2023/04/23 00:34:17;;;;;;;0.32;0.32;;;;;;;16.73;59.49;100850.09;5050472;28;20032;-66
2023/04/23 00:36:42;;;;;;;0.30;0.30;;;;;;;17.24;58.04;100847.25;5069492;28;20040;-66
2023/04/23 00:39:08;;;;;;;0.20;0.20;;;;;;;16.65;58.21;100843.25;5068877;28;20179;-66
2023/04/23 00:41:34;;;;;;;0.28;0.28;;;;;;;16.47;60.78;100841.78;5069143;28;20099;-66
2023/04/23 00:43:59;;;;;;;0.10;0.10;;;;;;;17.44;57.43;100836.41;5069268;28;20556;-66
2023/04/23 00:46:25;;;;;;;0.35;0.35;;;;;;;17.23;57.86;100840.19;5051185;28;20093;-66
2023/04/23 00:48:51;;;;;;;0.30;0.30;;;;;;;17.37;57.48;100832.34;5068363;28;20107;-66
2023/04/23 00:51:16;;;;;;;0.30;0.30;;;;;;;17.44;56.59;100828.25;5067731;28;20040;-68
2023/04/23 00:53:42;;;;;;;0.20;0.20;;;;;;;17.54;56.07;100824.75;5067328;28;20056;-67
2023/04/23 00:56:09;;;;;;;0.20;0.20;;;;;;;17.47;56.42;100822.28;5068934;28;20629;-68
2023/04/23 00:58:34;;;;;;;0.30;0.30;;;;;;;17.53;55.56;100817.72;5067625;28;20393;-66
2023/04/23 01:01:03;;;;;;;0.30;0.30;;;;;;;17.45;56.88;100812.78;5066789;28;20055;-66
2023/04/23 01:03:30;;;;;;;0.20;0.20;;;;;;;17.58;56.17;100812.25;5067088;28;20036;-66
2023/04/23 01:05:56;;;;;;;0.20;0.20;;;;;;;17.62;56.03;100812.53;5067195;28;20044;-67
2023/04/23 01:08:23;;;;;;;0.30;0.30;;;;;;;17.29;56.78;100824.72;5068033;28;20472;-66
2023/04/23 01:10:49;;;;;;;0.40;0.40;;;;;;;17.54;55.85;100816.59;5067753;28;20048;-66
2023/04/23 01:13:15;;;;;;;0.22;0.22;;;;;;;17.73;55.00;100814.19;5067104;28;20127;-66
2023/04/23 01:15:43;;;;;;;0.30;0.30;;;;;;;17.50;55.69;100802.75;5067726;28;20163;-65
2023/04/23 01:18:08;;;;;;;0.13;0.13;;;;;;;17.63;55.31;100809.53;5068563;28;20056;-65
2023/04/23 01:20:34;;;;;;;0.28;0.28;;;;;;;17.56;55.54;100806.28;5068282;28;20596;-65
2023/04/23 01:23:03;;;;;;;0.22;0.22;;;;;;;17.58;55.28;100801.41;5068390;28;20151;-65
2023/04/23 01:25:28;;;;;;;0.28;0.28;;;;;;;17.69;54.87;100797.56;5068815;28;20063;-66
2023/04/23 01:27:55;;;;;;;0.35;0.35;;;;;;;17.33;55.59;100806.78;5067960;28;20301;-66
2023/04/23 01:30:20;;;;;;;0.10;0.10;;;;;;;17.41;54.77;100808.97;5050293;28;20041;-67
2023/04/23 01:32:47;;;;;;;0.30;0.30;;;;;;;17.38;54.80;100804.88;5068696;28;20144;-66
2023/04/23 01:35:12;;;;;;;0.30;0.30;;;;;;;17.31;55.39;100811.69;5068443;28;20032;-66
2023/04/23 01:37:38;;;;;;;0.22;0.22;;;;;;;17.16;55.35;100803.53;5068046;28;20127;-65
2023/04/23 01:40:06;;;;;;;0.30;0.30;;;;;;;17.39;54.38;100806.50;5068449;28;20111;-68
2023/04/23 01:42:32;;;;;;;0.30;0.30;;;;;;;17.24;55.56;100802.97;5049749;28;20041;-66
2023/04/23 01:44:57;;;;;;;0.30;0.30;;;;;;;17.25;55.36;100807.31;5054089;28;20350;-65
2023/04/23 01:47:24;;;;;;;0.30;0.30;;;;;;;17.04;55.54;100795.59;5048833;28;20033;-67
2023/04/23 01:49:49;;;;;;;0.40;0.40;;;;;;;16.81;56.72;100800.69;5029324;28;20400;-65
2023/04/23 01:52:14;;;;;;;0.20;0.20;;;;;;;16.94;55.66;100798.31;5061445;28;20036;-65
2023/04/23 01:54:40;;;;;;;0.40;0.40;;;;;;;17.18;54.96;100796.72;5067878;28;20040;-67
2023/04/23 01:57:05;;;;;;;0.10;0.10;;;;;;;16.77;56.50;100794.16;5067403;28;20134;-67
2023/04/23 01:59:31;;;;;;;0.38;0.38;;;;;;;16.84;56.35;100789.31;5067865;28;20101;-67
2023/04/23 02:01:56;;;;;;;0.38;0.38;;;;;;;17.20;55.26;100782.84;5072014;28;20020;-66
2023/04/23 02:04:22;;;;;;;0.40;0.40;;;;;;;17.15;55.17;100794.56;5070998;28;20052;-66
2023/04/23 02:06:49;;;;;;;0.32;0.32;;;;;;;16.99;56.13;100789.34;5072273;28;20372;-66
2023/04/23 02:09:15;;;;;;;0.32;0.32;;;;;;;16.92;56.44;100780.66;5071611;28;20033;-67
2023/04/23 02:11:40;;;;;;;0.20;0.20;;;;;;;17.01;55.73;100774.44;5053138;28;20093;-65
2023/04/23 02:14:06;;;;;;;0.20;0.20;;;;;;;17.13;55.49;100783.13;5072097;28;20032;-69
2023/04/23 02:16:33;;;;;;;0.30;0.30;;;;;;;16.95;56.72;100775.50;5071467;28;20045;-66
2023/04/23 02:18:59;;;;;;;0.40;0.40;;;;;;;16.81;56.45;100768.94;5071658;28;20043;-67
2023/04/23 02:21:26;;;;;;;0.30;0.30;;;;;;;16.58;58.12;100770.25;5071574;28;20036;-67
2023/04/23 02:23:52;;;;;;;0.30;0.30;;;;;;;16.85;57.41;100766.50;5071484;28;20048;-66
2023/04/23 02:26:17;;;;;;;0.65;0.60;;;;;;;16.90;56.86;100767.38;5072976;28;20163;-66
2023/04/23 02:28:43;;;;;;;0.43;0.43;;;;;;;17.21;56.17;100760.88;5072895;28;20613;-66
2023/04/23 02:31:09;;;;;;;0.40;0.40;;;;;;;16.67;57.83;100765.94;5072786;28;20480;-64
2023/04/23 02:33:34;;;;;;;0.30;0.30;;;;;;;17.08;56.90;100764.09;5071779;28;20032;-66
2023/04/23 02:36:00;;;;;;;0.30;0.30;;;;;;;16.84;56.57;100765.72;5071383;28;20044;-67
2023/04/23 02:38:26;;;;;;;0.30;0.30;;;;;;;17.01;56.69;100769.00;5071554;28;20384;-65
2023/04/23 02:40:51;;;;;;;0.20;0.20;;;;;;;17.28;56.51;100766.84;5072560;28;20461;-66
2023/04/23 02:43:17;;;;;;;0.20;0.20;;;;;;;17.20;55.83;100756.53;5071472;28;20109;-65
2023/04/23 02:45:43;;;;;;;0.20;0.20;;;;;;;17.08;56.98;100755.97;5051620;28;20045;-67
2023/04/23 02:48:09;;;;;;;0.30;0.30;;;;;;;16.97;56.73;100762.47;5053053;28;20111;-66
2023/04/23 02:50:37;;;;;;;0.20;0.20;;;;;;;17.17;56.16;100764.41;5054386;28;20495;-66
2023/04/23 02:53:03;;;;;;;0.28;0.28;;;;;;;17.25;56.35;100756.53;5073946;28;20095;-65
2023/04/23 02:55:30;;;;;;;0.20;0.20;;;;;;;17.16;56.50;100758.16;5066644;28;20605;-66
2023/04/23 02:57:57;;;;;;;0.20;0.20;;;;;;;17.05;57.30;100761.94;5053631;28;20041;-67
2023/04/23 03:00:22;;;;;;;0.20;0.20;;;;;;;16.78;58.46;100753.22;5054481;28;20049;-67
2023/04/23 03:02:48;;;;;;;0.20;0.20;;;;;;;16.91;57.59;100746.44;5073771;28;20448;-65
2023/04/23 03:05:13;;;;;;;0.30;0.30;;;;;;;16.79;57.28;100749.41;5073315;28;20503;-66
2023/04/23 03:07:39;;;;;;;0.20;0.20;;;;;;;17.22;56.79;100745.38;5074633;28;20129;-65
2023/04/23 03:10:05;;;;;;;0.20;0.20;;;;;;;17.26;56.68;100741.03;5073470;28;20124;-65
2023/04/23 03:12:30;;;;;;;0.20;0.20;;;;;;;17.29;55.71;100740.50;5070294;28;20469;-65
2023/04/23 03:14:56;;;;;;;0.20;0.20;;;;;;;17.52;55.54;100732.66;5071121;28;20082;-66
2023/04/23 03:17:21;;;;;;;0.20;0.20;;;;;;;16.65;58.21;100740.13;5071670;28;20123;-66
2023/04/23 03:19:47;;;;;;;0.28;0.28;;;;;;;17.14;56.65;100732.38;5070841;28;20041;-65
2023/04/23 03:22:13;;;;;;;0.30;0.30;;;;;;;17.10;56.72;100731.28;5071017;28;20085;-66
2023/04/23 03:24:38;;;;;;;0.20;0.20;;;;;;;17.33;55.74;100725.31;5070180;28;20051;-65
2023/04/23 03:27:03;;;;;;;0.20;0.20;;;;;;;17.17;56.19;100734.53;5070214;28;20123;-66
2023/04/23 03:29:29;;;;;;;0.20;0.20;;;;;;;17.36;55.74;100731.00;5070528;28;20107;-66
2023/04/23 03:31:55;;;;;;;0.28;0.28;;;;;;;17.28;56.33;100725.28;5070353;28;20552;-66
2023/04/23 03:34:21;;;;;;;0.30;0.30;;;;;;;17.34;56.46;100722.31;5051348;28;20089;-65
2023/04/23 03:36:47;;;;;;;0.30;0.30;;;;;;;17.40;56.40;100718.50;5070126;28;20588;-65
2023/04/23 03:39:13;;;;;;;0.20;0.20;;;;;;;17.39;55.72;100719.56;5069759;28;20048;-66
2023/04/23 03:41:39;;;;;;;0.30;0.30;;;;;;;17.16;56.53;100714.69;5070135;28;20121;-66
2023/04/23 03:44:04;;;;;;;0.30;0.30;;;;;;;17.53;55.32;100717.19;5063785;28;20602;-65
2023/04/23 03:46:30;;;;;;;0.20;0.20;;;;;;;17.15;56.89;100714.97;5049318;28;20064;-64
2023/04/23 03:48:55;;;;;;;0.30;0.30;;;;;;;17.51;56.28;100713.91;5049807;28;20060;-65
2023/04/23 03:51:20;;;;;;;0.20;0.20;;;;;;;17.50;56.26;100712.28;5054887;28;20422;-65
2023/04/23 03:53:46;;;;;;;0.22;0.22;;;;;;;17.51;56.29;100709.28;5069464;28;20116;-67
2023/04/23 03:56:11;;;;;;;0.20;0.20;;;;;;;17.34;56.51;100711.44;5070126;28;20534;-65
2023/04/23 03:58:37;;;;;;;0.43;0.43;;;;;;;17.52;56.66;100710.09;5069103;28;20044;-66
2023/04/23 04:01:02;;;;;;;0.20;0.20;;;;;;;17.63;55.27;100706.25;5068907;28;20078;-65
2023/04/23 04:03:28;;;;;;;0.30;0.30;;;;;;;17.87;55.38;100707.31;5063133;28;20056;-67
2023/04/23 04:05:53;;;;;;;0.20;0.20;;;;;;;17.85;55.38;100703.22;5062434;28;20041;-66
2023/04/23 04:08:18;;;;;;;0.25;0.25;;;;;;;17.53;56.24;100696.22;5070079;28;20028;-65
2023/04/23 04:10:44;;;;;;;0.20;0.20;;;;;;;17.20;57.17;100704.09;5068967;28;20104;-65
2023/04/23 04:13:10;;;;;;;0.20;0.20;;;;;;;17.28;57.49;100701.66;5068728;28;20028;-66
2023/04/23 04:15:35;;;;;;;0.20;0.20;;;;;;;17.44;56.93;100706.00;5069055;28;20120;-65
2023/04/23 04:18:01;;;;;;;0.20;0.20;;;;;;;17.28;56.86;100700.84;5068829;28;20040;-65
2023/04/23 04:20:29;;;;;;;0.20;0.20;;;;;;;17.54;56.49;100697.06;5069302;28;20366;-66
2023/04/23 04:22:55;;;;;;;0.22;0.22;;;;;;;17.79;55.83;100694.28;5080979;28;20016;-66
2023/04/23 04:25:23;;;;;;;0.28;0.28;;;;;;;17.89;55.51;100698.84;5088964;28;20039;-66
2023/04/23 04:27:49;;;;;;;0.20;0.20;;;;;;;17.20;57.61;100696.78;5088887;28;20032;-66
2023/04/23 04:30:14;;;;;;;0.30;0.30;;;;;;;17.29;56.88;100691.63;5073289;28;20043;-67
2023/04/23 04:32:41;;;;;;;0.20;0.20;;;;;;;17.59;56.66;100688.91;5068559;28;20024;-66
2023/04/23 04:35:07;;;;;;;0.25;0.25;;;;;;;17.38;56.75;100685.38;5069090;28;20021;-66
2023/04/23 04:37:34;;;;;;;0.20;0.20;;;;;;;17.45;57.39;100676.94;5068911;28;20037;-66
2023/04/23 04:40:06;;;;;;;0.22;0.22;;;;;;;17.09;58.44;100678.88;5068604;28;20075;-65
2023/04/23 04:42:31;;;;;;;0.20;0.20;;;;;;;17.77;55.55;100673.91;5068513;28;20047;-67
2023/04/23 04:44:58;;;;;;;0.20;0.20;;;;;;;17.67;55.81;100679.38;5055049;28;20036;-66
2023/04/23 04:47:24;;;;;;;0.22;0.22;;;;;;;17.49;55.96;100692.44;5050921;28;20037;-66
2023/04/23 04:49:49;;;;;;;0.22;0.22;;;;;;;17.49;56.67;100692.44;5068587;28;20090;-67
2023/04/23 04:52:15;;;;;;;0.30;0.30;;;;;;;17.37;56.79;100707.38;5068875;28;20060;-66
2023/04/23 04:54:41;;;;;;;0.30;0.30;;;;;;;17.82;55.35;100704.59;5068327;28;20503;-66
2023/04/23 04:57:06;;;;;;;0.30;0.30;;;;;;;17.82;55.63;100696.47;5068338;28;20046;-65
2023/04/23 04:59:31;;;;;;;0.30;0.30;;;;;;;17.31;57.35;100701.13;5068799;28;20032;-67
2023/04/23 05:01:57;;;;;;;0.25;0.25;;;;;;;17.36;57.73;100708.44;5068368;28;20028;-66
2023/04/23 05:04:23;;;;;;;0.30;0.30;;;;;;;17.35;57.84;100704.13;5068325;28;20098;-66
2023/04/23 05:06:48;;;;;;;0.20;0.20;;;;;;;17.87;56.30;100706.47;5068467;28;20049;-65
2023/04/23 05:09:13;;;;;;;0.20;0.20;;;;;;;17.84;56.31;100704.31;5049810;28;20702;-66
2023/04/23 05:11:40;;;;;;;0.28;0.28;;;;;;;17.94;55.93;100701.59;5068770;28;20499;-66
2023/04/23 05:14:05;;;;;;;0.20;0.20;;;;;;;17.89;56.19;100699.69;5068572;28;20020;-66
2023/04/23 05:16:30;;;;;;;0.28;0.28;;;;;;;17.16;58.11;100692.19;5049157;28;20055;-66
2023/04/23 05:18:56;;;;;;;0.10;0.10;;;;;;;17.71;56.17;100694.03;5068812;28;20116;-65
2023/04/23 05:21:21;;;;;;;0.30;0.30;;;;;;;17.88;56.16;100694.53;5068068;28;20043;-65
2023/04/23 05:23:47;;;;;;;0.30;0.30;;;;;;;17.87;55.84;100695.59;5068455;28;20037;-66
2023/04/23 05:26:12;;;;;;;0.30;0.30;;;;;;;17.72;55.66;100701.09;5068915;28;20441;-66
2023/04/23 05:28:38;;;;;;;0.38;0.38;;;;;;;17.80;55.80;100697.81;5068363;28;20044;-66
2023/04/23 05:31:03;;;;;;;0.40;0.40;;;;;;;17.75;56.45;100692.41;5068427;28;20123;-67
2023/04/23 05:33:29;;;;;;;0.20;0.20;;;;;;;17.88;55.55;100700.78;5050206;28;20036;-66
2023/04/23 05:35:56;;;;;;;0.30;0.30;;;;;;;17.85;56.13;100703.22;5070201;28;20400;-65
2023/04/23 05:38:21;;;;;;;0.20;0.20;;;;;;;18.30;54.80;100700.34;5072578;28;20036;-66
2023/04/23 05:40:46;;;;;;;0.22;0.22;;;;;;;18.42;54.43;100707.13;5072024;28;20048;-67
2023/04/23 05:43:12;;;;;;;0.10;0.10;;;;;;;18.42;54.29;100700.81;5053835;28;20036;-65
2023/04/23 05:45:37;;;;;;;0.17;0.17;;;;;;;18.21;55.18;100700.13;5071655;28;20135;-67
2023/04/23 05:48:03;;;;;;;0.20;0.20;;;;;;;17.83;56.88;100695.34;5071691;28;20524;-66
2023/04/23 05:50:28;;;;;;;0.20;0.20;;;;;;;17.98;55.93;100686.34;5072108;28;20477;-66
2023/04/23 05:52:53;;;;;;;0.20;0.20;;;;;;;18.00;55.74;100689.59;5072088;28;20099;-66
2023/04/23 05:55:22;;;;;;;0.20;0.20;;;;;;;17.72;56.73;100682.88;5071571;28;20033;-66
2023/04/23 05:57:48;;;;;;;0.10;0.10;;;;;;;17.97;55.92;100690.13;5071674;28;20040;-65
2023/04/23 06:00:13;;;;;;;0.10;0.10;;;;;;;18.17;55.54;100696.31;5072091;28;20467;-64
2023/04/23 06:02:40;;;;;;;0.28;0.28;;;;;;;17.75;57.15;100690.47;5071325;28;20396;-66
2023/04/23 06:05:06;;;;;;;0.30;0.30;;;;;;;17.61;57.49;100694.84;5071997;28;20044;-66
2023/04/23 06:07:32;;;;;;;0.10;0.10;;;;;;;18.36;56.01;100693.78;5070818;28;20083;-66
2023/04/23 06:09:58;;;;;;;0.20;0.20;;;;;;;17.96;57.42;100694.78;5071621;28;20032;-65
2023/04/23 06:12:23;;;;;;;0.30;0.30;;;;;;;17.65;58.72;100692.44;5072355;28;20036;-65
2023/04/23 06:14:49;;;;;;;0.10;0.10;;;;;;;18.22;57.26;100699.00;5071531;28;20028;-66
2023/04/23 06:17:14;;;;;;;0.20;0.20;;;;;;;18.69;55.69;100689.56;5071737;28;20107;-65
2023/04/23 06:19:40;;;;;;;0.20;0.20;;;;;;;17.99;58.50;100691.50;5071981;28;20526;-64
2023/04/23 06:22:06;;;;;;;0.30;0.30;;;;;;;17.63;59.26;100691.88;5071581;28;20036;-67
2023/04/23 06:24:31;;;;;;;0.20;0.20;;;;;;;18.21;58.67;100691.97;5053108;28;20441;-66
2023/04/23 06:26:56;;;;;;;0.20;0.20;;;;;;;18.11;58.85;100681.13;5053148;28;20453;-65
2023/04/23 06:29:22;;;;;;;0.20;0.20;;;;;;;18.20;57.88;100684.09;5071695;28;20078;-66
2023/04/23 06:31:47;;;;;;;0.10;0.10;;;;;;;17.70;60.28;100684.25;5071393;28;20032;-65
2023/04/23 06:34:13;;;;;;;0.20;0.20;;;;;;;17.58;60.03;100684.53;5071294;28;20039;-65
2023/04/23 06:36:38;;;;;;;0.20;0.20;;;;;;;17.60;60.57;100684.25;5070790;28;20032;-65
2023/04/23 06:39:04;;;;;;;0.28;0.28;;;;;;;18.10;57.77;100681.41;5071232;28;20031;-67
2023/04/23 06:41:29;;;;;;;0.20;0.20;;;;;;;17.15;59.75;100687.81;5069837;28;20028;-65
2023/04/23 06:43:54;;;;;;;0.30;0.30;;;;;;;18.17;57.66;100673.75;5064867;28;20059;-66
2023/04/23 06:46:20;;;;;;;0.20;0.20;;;;;;;18.07;57.61;100679.22;5049797;28;20045;-66
2023/04/23 06:48:46;;;;;;;0.20;0.20;;;;;;;18.65;56.16;100677.59;5049577;28;20032;-66
2023/04/23 06:51:11;;;;;;;0.10;0.10;;;;;;;18.46;57.06;100674.72;5053672;28;20043;-66
2023/04/23 06:53:37;;;;;;;0.10;0.10;;;;;;;18.54;56.93;100676.84;5069780;28;20060;-67
2023/04/23 06:56:02;;;;;;;0.20;0.20;;;;;;;18.28;58.10;100672.59;5070015;28;20439;-66
2023/04/23 06:58:31;;;;;;;0.10;0.10;;;;;;;18.97;56.33;100677.91;5069431;28;20040;-66
2023/04/23 07:01:00;;;;;;;0.20;0.20;;;;;;;19.04;57.09;100671.06;5064450;28;20159;-65
2023/04/23 07:03:30;;;;;;;0.20;0.20;;;;;;;18.64;57.64;100665.88;5050112;28;20081;-65
2023/04/23 07:05:56;;;;;;;0.10;0.10;;;;;;;18.65;58.42;100667.53;5068542;28;20049;-65
2023/04/23 07:08:21;;;;;;;0.15;0.15;;;;;;;17.73;60.46;100664.69;5069463;28;20043;-65
2023/04/23 07:10:47;;;;;;;0.20;0.20;;;;;;;18.99;57.43;100659.34;5069248;28;20064;-65
2023/04/23 07:13:12;;;;;;;0.30;0.30;;;;;;;19.12;56.94;100659.50;5069118;28;20029;-65
2023/04/23 07:15:38;;;;;;;0.15;0.15;;;;;;;19.17;56.58;100661.38;5069409;28;20119;-65
2023/04/23 07:18:05;;;;;;;0.10;0.10;;;;;;;19.18;56.28;100658.38;5069191;28;20045;-65
2023/04/23 07:20:31;;;;;;;0.28;0.28;;;;;;;19.19;56.61;100651.00;5069842;28;20048;-68
2023/04/23 07:22:57;;;;;;;0.10;0.10;;;;;;;19.48;56.15;100649.13;5070229;28;20054;-66
2023/04/23 07:25:24;;;;;;;0.20;0.20;;;;;;;18.89;58.61;100643.09;5069713;28;20403;-66
2023/04/23 07:27:49;;;;;;;0.20;0.20;;;;;;;18.96;57.92;100652.59;5069937;28;20087;-65
2023/04/23 07:30:15;;;;;;;0.20;0.20;;;;;;;19.49;56.99;100639.88;5061575;28;20060;-66
2023/04/23 07:32:41;;;;;;;0.20;0.20;;;;;;;19.42;57.37;100638.59;5067902;28;20751;-65
2023/04/23 07:35:07;;;;;;;0.30;0.30;;;;;;;19.91;56.44;100637.19;5072425;28;20020;-68
2023/04/23 07:37:32;;;;;;;0.20;0.20;;;;;;;19.96;56.06;100634.41;5073486;28;20676;-66
2023/04/23 07:39:59;;;;;;;0.20;0.20;;;;;;;19.84;55.29;100639.47;5068469;28;20031;-65
2023/04/23 07:42:25;;;;;;;0.10;0.10;;;;;;;20.30;54.32;100633.44;5077610;28;20111;-65
2023/04/23 07:44:50;;;;;;;0.10;0.10;;;;;;;19.95;56.58;100632.75;5073561;28;20108;-66
2023/04/23 07:47:15;;;;;;;0.10;0.10;;;;;;;20.37;54.93;100631.97;5081024;28;20027;-67
2023/04/23 07:49:41;;;;;;;0.15;0.15;;;;;;;20.40;55.05;100633.31;5079425;28;20092;-65
2023/04/23 07:52:07;;;;;;;0.17;0.17;;;;;;;20.50;54.18;100639.41;5064875;28;20045;-66
2023/04/23 07:54:32;;;;;;;0.20;0.20;;;;;;;19.90;55.82;100630.13;5045223;28;20095;-66
2023/04/23 07:56:57;;;;;;;0.10;0.10;;;;;;;20.34;54.92;100631.75;5074509;28;20025;-66
2023/04/23 07:59:23;;;;;;;0.30;0.30;;;;;;;20.42;55.54;100628.34;5068463;28;20023;-67
2023/04/23 08:01:48;;;;;;;0.20;0.20;;;;;;;20.88;54.04;100634.72;5079689;28;20044;-65
2023/04/23 08:04:13;;;;;;;0.20;0.20;;;;;;;20.55;55.69;100630.34;5073662;28;20074;-66
2023/04/23 08:06:39;;;;;;;0.10;0.10;;;;;;;20.67;54.88;100625.25;5074763;28;20443;-65
2023/04/23 08:09:05;;;;;;;0.10;0.10;;;;;;;21.00;53.43;100630.44;5050217;28;20040;-66
2023/04/23 08:11:31;;;;;;;0.20;0.20;;;;;;;19.58;57.64;100619.03;5081344;28;20023;-67
2023/04/23 08:13:57;;;;;;;0.20;0.20;;;;;;;20.84;54.87;100625.50;5081021;28;20027;-65
2023/04/23 08:16:22;;;;;;;0.20;0.20;;;;;;;20.80;54.95;100619.00;5073473;28;20029;-66
2023/04/23 08:18:48;;;;;;;0.10;0.10;;;;;;;21.12;53.98;100616.31;5072430;28;20024;-67
2023/04/23 08:21:13;;;;;;;0.10;0.10;;;;;;;20.66;54.91;100618.97;5073689;28;20044;-66
2023/04/23 08:23:38;;;;;;;0.20;0.20;;;;;;;20.74;55.27;100620.19;5064811;28;20025;-66
2023/04/23 08:26:04;;;;;;;0.10;0.10;;;;;;;20.81;54.91;100618.69;5056273;28;20044;-66
2023/04/23 08:28:29;;;;;;;0.20;0.20;;;;;;;20.93;54.58;100612.81;5064601;28;20522;-65
2023/04/23 08:30:55;;;;;;;0.22;0.22;;;;;;;21.14;53.93;100616.81;5048296;28;20036;-69
2023/04/23 08:33:20;;;;;;;0.20;0.20;;;;;;;21.35;53.09;100612.59;5067781;28;20029;-64
2023/04/23 08:35:46;;;;;;;0.10;0.10;;;;;;;21.86;52.35;100606.97;5059218;28;20047;-66
2023/04/23 08:38:11;;;;;;;0.10;0.10;;;;;;;21.81;52.37;100620.78;5054841;28;20024;-65
2023/04/23 08:40:39;;;;;;;0.10;0.10;;;;;;;22.01;52.47;100619.53;5056878;28;20527;-65
2023/04/23 08:43:45;;;;;;;0.10;0.10;;;;;;;21.88;52.44;100618.41;5068541;28;20029;-65
2023/04/23 08:46:12;;;;;;;0.10;0.10;;;;;;;21.37;53.33;100625.97;5041161;28;20631;-66
2023/04/23 08:48:39;;;;;;;0.20;0.20;;;;;;;21.94;52.19;100624.59;5030139;28;20025;-66
2023/04/23 08:51:08;;;;;;;0.10;0.10;;;;;;;22.12;52.52;100624.47;5057938;28;20032;-67
2023/04/23 08:53:34;;;;;;;0.10;0.10;;;;;;;21.79;52.97;100623.78;5066268;28;20069;-66
2023/04/23 08:56:02;;;;;;;0.20;0.20;;;;;;;22.62;51.32;100623.34;5064551;28;20020;-66
2023/04/23 08:58:28;;;;;;;0.10;0.10;;;;;;;22.34;50.72;100619.06;5064358;28;20094;-64
2023/04/23 09:00:56;;;;;;;0.10;0.10;;;;;;;23.19;49.87;100618.91;5064486;28;20544;-67
2023/04/23 09:03:23;;;;;;;0.20;0.20;;;;;;;23.40;49.66;100611.00;5061908;28;20045;-65
2023/04/23 09:05:49;;;;;;;0.10;0.10;;;;;;;23.15;49.52;100609.72;5067327;28;20048;-67
2023/04/23 09:08:15;;;;;;;0.10;0.10;;;;;;;23.54;49.09;100604.28;5061104;28;20028;-66
2023/04/23 09:10:43;;;;;;;0.10;0.10;;;;;;;22.48;48.15;100605.34;5068652;28;20047;-68
2023/04/23 09:13:10;;;;;;;0.10;0.10;;;;;;;22.00;50.27;100610.50;5071321;28;20043;-66
2023/04/23 09:15:38;;;;;;;0.10;0.10;;;;;;;23.18;47.61;100603.59;5071161;28;20032;-66
2023/04/23 09:18:04;;;;;;;0.15;0.15;;;;;;;22.99;48.04;100602.19;5052790;28;20484;-65
2023/04/23 09:20:30;;;;;;;0.10;0.10;;;;;;;23.74;47.06;100591.94;5070834;28;20017;-67
2023/04/23 09:22:55;;;;;;;0.10;0.10;;;;;;;24.00;45.46;100592.00;5070677;28;20066;-66
2023/04/23 09:25:22;;;;;;;0.10;0.10;;;;;;;23.88;46.09;100587.09;5071133;28;20198;-68
2023/04/23 09:27:51;;;;;;;0.10;0.10;;;;;;;23.66;46.17;100586.41;5071093;28;20056;-66
2023/04/23 09:30:18;;;;;;;0.03;0.03;;;;;;;24.57;44.54;100590.75;5071538;28;20037;-67
2023/04/23 09:32:45;;;;;;;0.10;0.10;;;;;;;24.06;44.68;100590.72;5070504;28;20487;-67
2023/04/23 09:35:15;;;;;;;0.10;0.10;;;;;;;24.45;44.56;100584.31;5070738;28;20034;-67
2023/04/23 09:37:42;;;;;;;0.00;0.00;;;;;;;24.76;44.42;100583.03;5078737;28;20064;-68
2023/04/23 09:40:08;;;;;;;0.00;0.00;;;;;;;24.32;44.89;100586.88;5071139;28;20097;-68
2023/04/23 09:42:34;;;;;;;0.10;0.10;;;;;;;24.19;44.67;100585.09;5051320;28;20334;-67
2023/04/23 09:45:04;;;;;;;0.10;0.10;;;;;;;24.21;44.65;100582.03;5069281;28;20064;-65
2023/04/23 09:47:36;;;;;;;0.03;0.03;;;;;;;25.33;42.65;100578.00;5071008;28;20066;-67
2023/04/23 09:50:02;;;;;;;0.08;0.08;;;;;;;25.11;41.29;100581.81;5071293;28;20492;-68
2023/04/23 09:52:37;;;;;;;0.10;0.10;;;;;;;24.40;42.31;100579.78;5063127;28;20086;-66
2023/04/23 09:55:04;;;;;;;0.10;0.10;;;;;;;24.82;42.98;100573.47;5070784;28;20048;-68
2023/04/23 09:57:31;;;;;;;0.10;0.10;;;;;;;24.98;42.90;100568.25;5063205;28;20055;-65
2023/04/23 09:59:56;;;;;;;0.00;0.00;;;;;;;25.28;41.63;100568.00;5062353;28;20062;-67
2023/04/23 10:02:27;;;;;;;0.10;0.10;;;;;;;25.13;41.96;100570.47;5067209;28;20024;-65
2023/04/23 10:04:53;;;;;;;0.08;0.08;;;;;;;25.72;41.33;100558.44;5070912;28;20036;-66
2023/04/23 10:07:19;;;;;;;0.00;0.00;;;;;;;24.95;40.56;100569.72;5052271;28;20033;-66
2023/04/23 10:09:46;;;;;;;0.00;0.00;;;;;;;24.37;41.82;100566.69;5070590;28;20059;-67
2023/04/23 10:12:12;;;;;;;0.00;0.00;;;;;;;24.28;42.70;100563.94;5052125;28;20037;-66
2023/04/23 10:14:38;;;;;;;0.10;0.10;;;;;;;25.21;40.23;100564.94;5070535;28;20047;-66
2023/04/23 10:17:04;;;;;;;0.00;0.00;;;;;;;25.76;40.02;100562.13;5070340;28;20055;-67
2023/04/23 10:19:30;;;;;;;0.00;0.00;;;;;;;25.59;40.16;100553.94;5068913;28;20064;-66
2023/04/23 10:22:04;;;;;;;0.05;0.05;;;;;;;26.55;38.43;100551.03;5064927;28;20029;-67
2023/04/23 10:24:32;;;;;;;0.00;0.00;;;;;;;25.53;39.23;100554.47;5069035;28;20047;-67
2023/04/23 10:27:01;;;;;;;0.00;0.00;;;;;;;26.11;38.71;100557.22;5072347;28;20060;-65
2023/04/23 10:29:35;;;;;;;0.00;0.00;;;;;;;24.75;39.09;100561.34;5077540;28;20501;-65
2023/04/23 10:32:05;;;;;;;0.00;0.00;;;;;;;25.05;39.02;100569.38;5078117;28;20028;-66
2023/04/23 10:34:31;;;;;;;0.10;0.10;;;;;;;24.38;38.72;100554.56;5073406;28;20024;-65
2023/04/23 10:36:59;;;;;;;0.00;0.00;;;;;;;25.28;37.12;100568.00;5068893;28;20445;-66
2023/04/23 10:39:31;;;;;;;0.00;0.00;;;;;;;25.53;37.14;100560.81;5069913;28;20059;-67
2023/04/23 10:41:58;;;;;;;0.00;0.00;;;;;;;24.29;35.29;100551.03;5066759;28;20620;-66
2023/04/23 10:44:31;;;;;;;0.00;0.00;;;;;;;25.25;35.67;100549.41;5064745;28;20074;-67
2023/04/23 10:46:59;;;;;;;0.00;0.00;;;;;;;25.44;35.45;100543.50;5069400;28;20041;-66
2023/04/23 10:49:25;;;;;;;0.00;0.00;;;;;;;24.39;35.93;100534.22;5065907;28;20028;-65
2023/04/23 10:52:09;;;;;;;0.00;0.00;;;;;;;25.22;34.38;100528.03;5065465;28;20025;-65
2023/04/23 10:54:35;;;;;;;0.00;0.00;;;;;;;24.76;35.80;100532.72;5051543;28;20032;-66
2023/04/23 10:57:02;;;;;;;0.00;0.00;;;;;;;25.13;33.60;100530.03;5042693;28;20064;-65
2023/04/23 10:59:29;;;;;;;0.00;0.00;;;;;;;25.04;33.27;100531.97;5064866;28;20111;-65
2023/04/23 11:01:59;;;;;;;0.00;0.00;;;;;;;25.81;33.47;100525.31;5069391;28;20111;-66
2023/04/23 11:04:28;;;;;;;0.00;0.00;;;;;;;24.29;34.22;100518.06;5068343;28;20811;-64
2023/04/23 11:06:56;;;;;;;0.03;0.03;;;;;;;25.65;33.54;100516.06;5068214;28;20496;-67
2023/04/23 11:09:30;;;;;;;0.00;0.00;;;;;;;26.90;31.00;100508.19;5068393;28;20039;-66
2023/04/23 11:11:58;;;;;;;0.00;0.00;;;;;;;26.13;31.70;100510.88;5068324;28;20044;-64
2023/04/23 11:14:35;;;;;;;0.00;0.00;;;;;;;25.23;31.48;100515.09;5069037;28;20019;-65
2023/04/23 11:17:05;;;;;;;0.00;0.00;;;;;;;24.83;33.00;100519.28;5068906;28;20067;-66
2023/04/23 11:19:34;;;;;;;;;;;;;;;24.39;33.60;100510.28;5060079;28;20450;-65